Impacts TAF Board INFO
FOR SITUATIONAL AWARENESS. NOT TO BE USED FOR FLIGHT PLANNING PURPOSES.
IDs:

KPDX - Portland Intl Arpt, OR, US

Issued at 0300 UTC 22 Apr 2018
Updated at 0430 UTC 22 Apr 2018
Potential Impact None Slight Moderate High
Time<<22/17Z 22/18Z 22/19Z 22/20Z 22/21Z 22/22Z 22/23Z 23/00Z 23/01Z 23/02Z 23/03Z 23/04Z 23/05Z>>
Type PRVL PRVL PRVL PRVL PRVL PRVL PRVL
VIS >6 >6 >6 >6 >6 >6 >6
CIG -- -- -- -- -- -- --
Cover SCT SCT SKC SKC SKC SKC SKC
FltCat VFR VFR VFR VFR VFR VFR VFR
WX -- -- -- -- -- -- --
WDir VRB VRB 320 320 320 320 320
WSpd 3 3 10 10 10 10 10
WGst -- -- 18 18 18 18 18

Raw TAF
KPDX 220300Z 2203/2224 34007KT P6SM FEW060 FEW250
  FM220500 VRB03KT P6SM SCT250
  FM221900 32010G18KT P6SM SKC


METAR Board
Radar Display
Forecast Discussion

FOR SITUATIONAL AWARENESS. NOT TO BE USED FOR FLIGHT PLANNING PURPOSES.